createdAt,value
2018-12-01T00:00:34.776Z,14.20
2018-12-01T00:03:02.708Z,14.00
2018-12-01T00:05:30.708Z,13.87
2018-12-01T00:07:58.625Z,13.67
2018-12-01T00:10:26.526Z,14.13
2018-12-01T00:12:54.525Z,13.10
2018-12-01T00:15:24.623Z,11.93
2018-12-01T00:17:52.813Z,15.23
2018-12-01T00:20:22.929Z,11.80
2018-12-01T00:22:50.787Z,13.10
2018-12-01T00:25:18.684Z,10.63
2018-12-01T00:27:46.569Z,10.67
2018-12-01T00:30:16.279Z,11.33
2018-12-01T00:32:44.986Z,13.13
2018-12-01T00:35:13.265Z,14.40
2018-12-01T00:37:41.164Z,12.00
2018-12-01T00:40:23.647Z,10.93
2018-12-01T00:42:51.849Z,11.17
2018-12-01T00:45:20.640Z,11.00
2018-12-01T00:47:50.349Z,11.77
2018-12-01T00:50:19.352Z,12.37
2018-12-01T00:52:48.129Z,11.90
2018-12-01T00:55:16.768Z,11.80
2018-12-01T00:57:44.580Z,10.57
2018-12-01T01:00:21.808Z,10.73
2018-12-01T01:02:51.929Z,10.77
2018-12-01T01:05:20.670Z,10.63
2018-12-01T01:07:48.541Z,10.60
2018-12-01T01:10:16.369Z,10.87
2018-12-01T01:12:44.125Z,10.50
2018-12-01T01:15:11.915Z,9.70
2018-12-01T01:17:39.669Z,9.87
2018-12-01T01:20:10.879Z,10.47
2018-12-01T01:22:38.677Z,9.63
2018-12-01T01:25:07.558Z,10.50
2018-12-01T01:27:35.279Z,10.03
2018-12-01T01:30:04.838Z,10.50
2018-12-01T01:32:32.614Z,11.10
2018-12-01T01:35:00.344Z,10.73
2018-12-01T01:37:28.120Z,12.17
2018-12-01T01:39:55.866Z,12.83
2018-12-01T01:42:23.609Z,9.07
2018-12-01T01:44:51.942Z,9.23
2018-12-01T01:47:19.706Z,7.67
2018-12-01T01:49:47.432Z,7.73
2018-12-01T01:52:15.164Z,9.50
2018-12-01T01:54:44.308Z,9.40
2018-12-01T01:57:12.676Z,9.53
2018-12-01T01:59:40.393Z,9.20
2018-12-01T02:02:08.134Z,9.80
2018-12-01T02:04:35.864Z,9.30
2018-12-01T02:07:03.664Z,9.43
2018-12-01T02:09:31.410Z,9.47
2018-12-01T02:11:59.125Z,9.37
2018-12-01T02:14:26.916Z,8.87
2018-12-01T02:16:54.850Z,8.97
2018-12-01T02:19:22.590Z,8.43
2018-12-01T02:21:50.360Z,9.43
2018-12-01T02:24:18.100Z,7.97
2018-12-01T02:26:45.847Z,8.10
2018-12-01T02:29:13.640Z,8.60
2018-12-01T02:31:41.392Z,8.97
2018-12-01T02:34:09.145Z,9.17
2018-12-01T02:36:36.990Z,8.67
2018-12-01T02:39:07.798Z,7.40
2018-12-01T02:41:35.524Z,8.17
2018-12-01T02:44:14.405Z,7.77
2018-12-01T02:46:53.373Z,7.63
2018-12-01T02:49:21.113Z,7.87
2018-12-01T02:51:48.824Z,8.73
2018-12-01T02:54:16.571Z,8.03
2018-12-01T02:56:44.302Z,8.47
2018-12-01T02:59:12.050Z,8.57
2018-12-01T03:01:39.816Z,8.83
2018-12-01T03:04:07.565Z,7.97
2018-12-01T03:06:35.296Z,7.60
2018-12-01T03:09:03.978Z,8.07
2018-12-01T03:11:31.707Z,8.50
2018-12-01T03:13:59.460Z,9.13
2018-12-01T03:16:27.213Z,8.90
2018-12-01T03:18:54.946Z,8.27
2018-12-01T03:21:22.682Z,8.50
2018-12-01T03:23:50.440Z,7.70
2018-12-01T03:26:18.180Z,8.03
2018-12-01T03:28:45.954Z,7.80
2018-12-01T03:31:13.797Z,7.53
2018-12-01T03:33:41.487Z,8.17
2018-12-01T03:36:09.244Z,8.40
2018-12-01T03:38:36.964Z,7.57
2018-12-01T03:41:04.820Z,8.30
2018-12-01T03:43:32.565Z,8.67
2018-12-01T03:46:00.322Z,8.83
2018-12-01T03:48:28.036Z,8.07
2018-12-01T03:50:55.782Z,7.93
2018-12-01T03:53:23.520Z,8.60
2018-12-01T03:55:51.256Z,7.60
2018-12-01T03:58:18.972Z,8.83
2018-12-01T04:00:46.714Z,9.07
2018-12-01T04:03:14.600Z,9.27
2018-12-01T04:05:42.438Z,9.43
2018-12-01T04:08:10.204Z,9.57
2018-12-01T04:10:37.951Z,10.60
2018-12-01T04:13:05.895Z,12.20
2018-12-01T04:15:33.679Z,11.43
2018-12-01T04:18:01.403Z,12.33
2018-12-01T04:20:29.141Z,12.93
2018-12-01T04:22:56.888Z,13.20
2018-12-01T04:25:24.655Z,14.63
2018-12-01T04:27:52.472Z,13.30
2018-12-01T04:30:21.176Z,13.57
2018-12-01T04:32:49.014Z,11.83
2018-12-01T04:35:18.442Z,15.97
2018-12-01T04:37:48.097Z,17.70
2018-12-01T04:40:15.920Z,18.53
2018-12-01T04:42:44.337Z,17.73
2018-12-01T04:45:12.192Z,17.07
2018-12-01T04:47:39.936Z,18.87
2018-12-01T04:50:09.168Z,20.90
2018-12-01T04:52:36.949Z,20.97
2018-12-01T04:55:06.114Z,17.90
2018-12-01T04:57:33.832Z,18.33
2018-12-01T05:00:01.595Z,20.27
2018-12-01T05:02:29.370Z,24.27
2018-12-01T05:04:57.092Z,22.17
2018-12-01T05:07:24.826Z,15.43
2018-12-01T05:09:52.575Z,13.53
2018-12-01T05:12:20.283Z,13.30
2018-12-01T05:14:47.994Z,11.67
2018-12-01T05:17:15.767Z,12.13
2018-12-01T05:19:43.494Z,12.23
2018-12-01T05:22:11.248Z,10.47
2018-12-01T05:24:38.988Z,10.33
2018-12-01T05:27:06.760Z,11.83
2018-12-01T05:29:34.468Z,13.07
2018-12-01T05:32:02.192Z,12.40
2018-12-01T05:34:29.921Z,13.23
2018-12-01T05:36:57.690Z,12.53
2018-12-01T05:39:25.626Z,10.67
2018-12-01T05:41:53.358Z,12.03
2018-12-01T05:44:21.097Z,12.87
2018-12-01T05:46:48.831Z,13.00
2018-12-01T05:49:16.682Z,13.17
2018-12-01T05:51:44.424Z,13.37
2018-12-01T05:54:12.551Z,13.30
2018-12-01T05:56:41.940Z,15.23
2018-12-01T05:59:09.686Z,16.60
2018-12-01T06:01:37.422Z,16.60
2018-12-01T06:04:05.468Z,17.20
2018-12-01T06:06:33.375Z,16.20
2018-12-01T06:09:01.120Z,16.70
2018-12-01T06:11:28.853Z,17.07
2018-12-01T06:13:56.616Z,17.90
2018-12-01T06:16:24.359Z,16.73
2018-12-01T06:18:54.897Z,14.17
2018-12-01T06:21:22.643Z,15.97
2018-12-01T06:23:50.364Z,14.73
2018-12-01T06:26:18.098Z,16.63
2018-12-01T06:28:45.826Z,15.83
2018-12-01T06:31:13.609Z,16.83
2018-12-01T06:33:41.334Z,16.43
2018-12-01T06:36:09.108Z,15.97
2018-12-01T06:38:36.846Z,15.23
2018-12-01T06:41:04.664Z,15.10
2018-12-01T06:43:32.414Z,15.23
2018-12-01T06:46:00.158Z,15.30
2018-12-01T06:48:27.883Z,20.67
2018-12-01T06:50:55.600Z,26.23
2018-12-01T06:53:23.323Z,18.00
2018-12-01T06:55:51.043Z,18.73
2018-12-01T06:58:18.780Z,14.70
2018-12-01T07:00:46.510Z,15.33
2018-12-01T07:03:14.240Z,16.53
2018-12-01T07:05:41.965Z,14.57
2018-12-01T07:08:09.709Z,13.43
2018-12-01T07:10:37.432Z,13.00
2018-12-01T07:13:06.015Z,13.07
2018-12-01T07:15:34.994Z,14.07
2018-12-01T07:18:12.665Z,14.03
2018-12-01T07:20:41.078Z,15.20
2018-12-01T07:23:08.989Z,15.23
2018-12-01T07:25:36.716Z,16.30
2018-12-01T07:28:04.698Z,16.20
2018-12-01T07:30:32.483Z,13.57
2018-12-01T07:33:00.219Z,13.67
2018-12-01T07:35:27.960Z,12.60
2018-12-01T07:37:55.717Z,12.80
2018-12-01T07:40:23.472Z,22.53
2018-12-01T07:42:51.212Z,14.80
2018-12-01T07:45:18.990Z,11.67
2018-12-01T07:47:46.701Z,12.00
2018-12-01T07:50:15.566Z,11.80
2018-12-01T07:52:51.599Z,11.47
2018-12-01T07:55:19.427Z,11.83
2018-12-01T07:57:47.169Z,13.37
2018-12-01T08:00:15.826Z,15.10
2018-12-01T08:02:46.448Z,15.27
2018-12-01T08:05:14.192Z,14.70
2018-12-01T08:07:41.954Z,14.30
2018-12-01T08:10:13.597Z,13.23
2018-12-01T08:12:41.354Z,15.53
2018-12-01T08:15:11.258Z,16.43
2018-12-01T08:17:38.980Z,17.40
2018-12-01T08:20:08.857Z,18.10
2018-12-01T08:22:36.624Z,15.87
2018-12-01T08:25:05.350Z,16.37
2018-12-01T08:27:33.094Z,16.60
2018-12-01T08:30:00.832Z,14.43
2018-12-01T08:32:28.552Z,13.07
2018-12-01T08:34:56.290Z,12.00
2018-12-01T08:37:24.046Z,12.73
2018-12-01T08:39:51.800Z,13.57
2018-12-01T08:42:19.555Z,14.37
2018-12-01T08:44:47.308Z,14.63
2018-12-01T08:47:15.055Z,14.90
2018-12-01T08:49:42.793Z,14.17
2018-12-01T08:52:10.516Z,16.70
2018-12-01T08:54:38.260Z,14.43
2018-12-01T08:57:06.609Z,16.73
2018-12-01T08:59:34.366Z,17.50
2018-12-01T09:02:02.100Z,16.23
2018-12-01T09:04:29.880Z,17.50
2018-12-01T09:06:57.612Z,16.53
2018-12-01T09:09:25.350Z,16.63
2018-12-01T09:11:53.102Z,16.77
2018-12-01T09:14:20.965Z,17.07
2018-12-01T09:16:48.712Z,16.07
2018-12-01T09:19:16.447Z,16.57
2018-12-01T09:21:44.190Z,16.47
2018-12-01T09:24:13.061Z,16.93
2018-12-01T09:26:39.774Z,17.77
2018-12-01T09:29:07.528Z,17.27
2018-12-01T09:31:35.244Z,20.17
2018-12-01T09:34:02.984Z,19.60
2018-12-01T09:36:30.748Z,20.27
2018-12-01T09:38:58.513Z,19.83
2018-12-01T09:41:26.333Z,22.43
2018-12-01T09:43:54.064Z,20.27
2018-12-01T09:46:21.798Z,19.50
2018-12-01T09:48:49.535Z,20.43
2018-12-01T09:51:17.283Z,22.90
2018-12-01T09:53:45.020Z,27.47
2018-12-01T09:56:12.767Z,23.50
2018-12-01T09:58:40.516Z,25.23
2018-12-01T10:01:08.278Z,27.37
2018-12-01T10:03:36.024Z,23.83
2018-12-01T10:06:03.797Z,27.13
2018-12-01T10:08:31.541Z,27.80
2018-12-01T10:10:59.328Z,26.00
2018-12-01T10:13:27.060Z,26.43
2018-12-01T10:15:54.796Z,27.87
2018-12-01T10:18:22.528Z,26.10
2018-12-01T10:20:50.267Z,26.87
2018-12-01T10:23:18.008Z,26.77
2018-12-01T10:25:45.753Z,25.20
2018-12-01T10:28:13.510Z,27.50
2018-12-01T10:30:41.288Z,27.87
2018-12-01T10:33:09.050Z,27.30
2018-12-01T10:35:37.226Z,27.90
2018-12-01T10:38:13.533Z,27.63
2018-12-01T10:40:41.300Z,26.23
2018-12-01T10:43:09.057Z,26.40
2018-12-01T10:45:36.822Z,28.27
2018-12-01T10:48:05.423Z,26.70
2018-12-01T10:50:33.160Z,26.63
2018-12-01T10:53:00.954Z,25.23
2018-12-01T10:55:29.760Z,24.77
2018-12-01T10:58:05.917Z,24.43
2018-12-01T11:00:39.185Z,24.77
2018-12-01T11:03:12.906Z,26.33
2018-12-01T11:05:40.736Z,24.40
2018-12-01T11:08:09.463Z,26.43
2018-12-01T11:10:37.228Z,25.50
2018-12-01T11:13:04.969Z,30.63
2018-12-01T11:15:34.303Z,27.00
2018-12-01T11:18:02.088Z,25.87
2018-12-01T11:20:29.860Z,26.20
2018-12-01T11:22:58.160Z,29.50
2018-12-01T11:25:25.486Z,27.57
2018-12-01T11:27:53.272Z,27.70
2018-12-01T11:30:21.020Z,27.37
2018-12-01T11:32:48.910Z,26.07
2018-12-01T11:35:16.666Z,25.23
2018-12-01T11:37:45.419Z,26.90
2018-12-01T11:40:15.338Z,25.57
2018-12-01T11:42:42.318Z,26.33
2018-12-01T11:45:11.555Z,26.47
2018-12-01T11:47:39.360Z,28.57
2018-12-01T11:50:09.747Z,27.30
2018-12-01T11:52:37.529Z,27.03
2018-12-01T11:55:08.938Z,26.50
2018-12-01T11:57:36.661Z,25.00
2018-12-01T12:00:06.670Z,24.73
2018-12-01T12:02:34.556Z,24.50
2018-12-01T12:05:02.388Z,24.77
2018-12-01T12:07:41.251Z,24.30
2018-12-01T12:10:09.031Z,24.17
2018-12-01T12:12:36.774Z,24.60
2018-12-01T12:15:06.122Z,24.87
2018-12-01T12:17:33.857Z,23.10
2018-12-01T12:20:01.748Z,24.77
2018-12-01T12:22:29.592Z,25.00
2018-12-01T12:24:57.377Z,24.83
2018-12-01T12:27:25.157Z,23.83
2018-12-01T12:29:52.901Z,22.17
2018-12-01T12:32:20.688Z,21.13
2018-12-01T12:34:48.441Z,21.37
2018-12-01T12:37:16.202Z,24.83
2018-12-01T12:39:43.928Z,23.33
2018-12-01T12:42:11.718Z,24.43
2018-12-01T12:44:39.444Z,26.07
2018-12-01T12:47:07.172Z,21.73
2018-12-01T12:49:34.937Z,21.10
2018-12-01T12:52:02.688Z,21.77
2018-12-01T12:54:30.426Z,21.47
2018-12-01T12:56:58.144Z,20.10
2018-12-01T12:59:25.956Z,19.97
2018-12-01T13:01:53.671Z,18.47
2018-12-01T13:04:21.388Z,20.40
2018-12-01T13:06:49.128Z,19.97
2018-12-01T13:09:16.866Z,20.90
2018-12-01T13:11:44.610Z,20.00
2018-12-01T13:14:12.337Z,18.87
2018-12-01T13:16:40.073Z,21.37
2018-12-01T13:19:07.866Z,21.00
2018-12-01T13:21:35.652Z,22.53
2018-12-01T13:24:03.449Z,22.47
2018-12-01T13:26:31.188Z,21.63
2018-12-01T13:28:58.941Z,21.20
2018-12-01T13:31:26.730Z,21.73
2018-12-01T13:33:54.496Z,21.10
2018-12-01T13:36:22.255Z,19.23
2018-12-01T13:38:50.125Z,18.17
2018-12-01T13:41:17.925Z,17.90
2018-12-01T13:43:45.700Z,17.70
2018-12-01T13:46:13.447Z,20.20
2018-12-01T13:48:41.229Z,20.63
2018-12-01T13:51:08.993Z,20.23
2018-12-01T13:53:36.726Z,19.07
2018-12-01T13:56:04.691Z,20.57
2018-12-01T13:58:32.447Z,20.07
2018-12-01T14:01:00.171Z,22.20
2018-12-01T14:03:27.972Z,21.37
2018-12-01T14:05:55.699Z,23.50
2018-12-01T14:08:23.470Z,24.43
2018-12-01T14:10:51.517Z,26.93
2018-12-01T14:13:19.231Z,29.70
2018-12-01T14:15:47.082Z,27.90
2018-12-01T14:18:14.957Z,28.47
2018-12-01T14:20:42.858Z,28.63
2018-12-01T14:23:10.619Z,29.10
2018-12-01T14:25:38.403Z,29.13
2018-12-01T14:28:10.599Z,30.70
2018-12-01T14:30:38.414Z,30.93
2018-12-01T14:33:07.202Z,32.77
2018-12-01T14:35:36.074Z,32.10
2018-12-01T14:38:13.243Z,34.73
2018-12-01T14:40:42.234Z,35.00
2018-12-01T14:43:10.003Z,31.67
2018-12-01T14:45:38.054Z,31.80
2018-12-01T14:48:06.342Z,31.67
2018-12-01T14:50:34.100Z,33.63
2018-12-01T14:53:01.852Z,34.93
2018-12-01T14:55:29.652Z,36.73
2018-12-01T14:57:57.414Z,36.10
2018-12-01T15:00:25.907Z,39.70
2018-12-01T15:02:54.840Z,43.17
2018-12-01T15:05:22.915Z,45.47
2018-12-01T15:07:50.681Z,45.53
2018-12-01T15:10:20.572Z,46.17
2018-12-01T15:12:48.430Z,46.63
2018-12-01T15:15:17.839Z,47.47
2018-12-01T15:17:45.240Z,50.80
2018-12-01T15:20:16.939Z,53.13
2018-12-01T15:22:45.686Z,57.23
2018-12-01T15:25:15.400Z,60.37
2018-12-01T15:27:43.168Z,63.70
2018-12-01T15:30:14.112Z,67.80
2018-12-01T15:32:42.653Z,67.63
2018-12-01T15:35:11.938Z,87.63
2018-12-01T15:37:40.394Z,122.40
2018-12-01T15:40:11.261Z,103.40
2018-12-01T15:42:39.010Z,103.60
2018-12-01T15:45:08.659Z,98.57
2018-12-01T15:47:36.452Z,102.10
2018-12-01T15:50:05.389Z,104.80
2018-12-01T15:52:33.137Z,102.57
2018-12-01T15:55:00.959Z,106.70
2018-12-01T15:57:28.708Z,112.70
2018-12-01T15:59:56.479Z,115.50
2018-12-01T16:02:24.242Z,116.30
2018-12-01T16:04:52.000Z,120.00
2018-12-01T16:07:19.764Z,119.83
2018-12-01T16:09:47.502Z,122.77
2018-12-01T16:12:15.259Z,122.50
2018-12-01T16:14:42.999Z,131.43
2018-12-01T16:17:10.746Z,148.13
2018-12-01T16:19:38.532Z,149.30
2018-12-01T16:22:06.304Z,135.40
2018-12-01T16:24:34.153Z,93.30
2018-12-01T16:27:01.906Z,62.07
2018-12-01T16:29:29.689Z,57.37
2018-12-01T16:31:57.418Z,53.30
2018-12-01T16:34:25.149Z,45.87
2018-12-01T16:36:52.912Z,40.70
2018-12-01T16:39:20.696Z,39.23
2018-12-01T16:41:48.768Z,39.83
2018-12-01T16:44:16.572Z,48.70
2018-12-01T16:46:44.322Z,59.43
2018-12-01T16:49:12.102Z,61.73
2018-12-01T16:51:39.864Z,55.97
2018-12-01T16:54:07.626Z,59.60
2018-12-01T16:56:35.501Z,68.47
2018-12-01T16:59:03.301Z,76.90
2018-12-01T17:01:31.035Z,73.57
2018-12-01T17:03:58.798Z,54.07
2018-12-01T17:06:26.540Z,59.40
2018-12-01T17:08:55.598Z,73.13
2018-12-01T17:11:23.517Z,78.07
2018-12-01T17:13:51.326Z,91.30
2018-12-01T17:16:19.140Z,91.93
2018-12-01T17:18:46.860Z,93.30
2018-12-01T17:21:14.683Z,98.33
2018-12-01T17:23:42.430Z,95.73
2018-12-01T17:26:10.271Z,86.70
2018-12-01T17:28:38.036Z,79.87
2018-12-01T17:31:06.587Z,73.23
2018-12-01T17:33:34.463Z,67.13
2018-12-01T17:36:02.271Z,62.07
2018-12-01T17:38:30.104Z,59.47
2018-12-01T17:41:10.224Z,60.47
2018-12-01T17:43:41.320Z,62.00
2018-12-01T17:46:09.065Z,65.00
2018-12-01T17:48:37.014Z,70.73
2018-12-01T17:51:04.775Z,77.63
2018-12-01T17:53:32.523Z,83.73
2018-12-01T17:56:00.391Z,87.80
2018-12-01T17:58:28.270Z,90.37
2018-12-01T18:00:56.042Z,94.30
2018-12-01T18:03:23.785Z,92.00
2018-12-01T18:05:51.562Z,88.90
2018-12-01T18:08:21.308Z,87.23
2018-12-01T18:10:51.472Z,85.90
2018-12-01T18:13:19.372Z,89.30
2018-12-01T18:15:47.154Z,87.30
2018-12-01T18:18:14.864Z,92.77
2018-12-01T18:20:42.654Z,95.53
2018-12-01T18:23:12.425Z,93.57
2018-12-01T18:25:45.627Z,94.37
2018-12-01T18:28:15.756Z,94.07
2018-12-01T18:30:43.509Z,99.43
2018-12-01T18:33:16.803Z,104.03
2018-12-01T18:35:44.673Z,111.27
2018-12-01T18:38:12.529Z,113.33
2018-12-01T18:40:40.374Z,113.20
2018-12-01T18:43:08.695Z,115.67
2018-12-01T18:45:37.288Z,108.23
2018-12-01T18:48:05.146Z,108.97
2018-12-01T18:50:32.932Z,110.33
2018-12-01T18:53:02.262Z,104.87
2018-12-01T18:55:31.571Z,92.87
2018-12-01T18:57:59.323Z,96.33
2018-12-01T19:00:30.872Z,96.93
2018-12-01T19:02:58.600Z,94.07
2018-12-01T19:05:26.343Z,92.73
2018-12-01T19:07:54.078Z,92.40
2018-12-01T19:10:21.822Z,101.67
2018-12-01T19:12:49.566Z,110.13
2018-12-01T19:15:17.838Z,111.60
2018-12-01T19:17:46.898Z,106.87
2018-12-01T19:20:15.590Z,110.43
2018-12-01T19:22:43.638Z,102.40
2018-12-01T19:25:16.785Z,101.63
2018-12-01T19:27:44.674Z,94.63
2018-12-01T19:30:13.403Z,92.77
2018-12-01T19:32:41.837Z,92.90
2018-12-01T19:35:11.862Z,89.00
2018-12-01T19:37:39.599Z,86.10
2018-12-01T19:40:13.119Z,87.37
2018-12-01T19:42:40.886Z,94.23
2018-12-01T19:45:09.073Z,92.30
2018-12-01T19:47:36.884Z,89.20
2018-12-01T19:50:08.815Z,83.07
2018-12-01T19:52:36.550Z,81.53
2018-12-01T19:55:05.608Z,78.17
2018-12-01T19:57:33.384Z,78.27
2018-12-01T20:00:01.124Z,77.27
2018-12-01T20:02:28.888Z,77.00
2018-12-01T20:04:56.640Z,77.53
2018-12-01T20:07:24.372Z,78.97
2018-12-01T20:09:52.107Z,77.93
2018-12-01T20:12:19.862Z,72.17
2018-12-01T20:14:47.686Z,75.67
2018-12-01T20:17:15.429Z,75.53
2018-12-01T20:19:43.193Z,70.30
2018-12-01T20:22:11.103Z,74.70
2018-12-01T20:24:38.838Z,77.57
2018-12-01T20:27:06.805Z,81.97
2018-12-01T20:29:34.585Z,81.23
2018-12-01T20:32:02.337Z,75.63
2018-12-01T20:34:30.066Z,75.70
2018-12-01T20:37:03.533Z,77.23
2018-12-01T20:39:33.410Z,73.50
2018-12-01T20:42:01.220Z,73.70
2018-12-01T20:44:28.974Z,66.97
2018-12-01T20:46:56.721Z,68.10
2018-12-01T20:49:24.457Z,61.80
2018-12-01T20:51:52.210Z,62.73
2018-12-01T20:54:37.813Z,61.50
2018-12-01T20:57:12.818Z,58.90
2018-12-01T20:59:40.583Z,54.00
2018-12-01T21:02:08.366Z,55.90
2018-12-01T21:04:36.100Z,56.63
2018-12-01T21:07:03.886Z,56.90
2018-12-01T21:09:31.659Z,53.57
2018-12-01T21:12:00.008Z,56.03
2018-12-01T21:14:27.771Z,51.47
2018-12-01T21:16:55.520Z,56.30
2018-12-01T21:19:23.247Z,66.97
2018-12-01T21:21:51.007Z,70.50
2018-12-01T21:24:18.839Z,68.00
2018-12-01T21:26:46.591Z,77.97
2018-12-01T21:29:14.343Z,85.83
2018-12-01T21:31:42.150Z,88.20
2018-12-01T21:34:09.890Z,88.10
2018-12-01T21:36:37.662Z,93.07
2018-12-01T21:39:07.567Z,96.53
2018-12-01T21:41:35.391Z,94.40
2018-12-01T21:44:03.469Z,94.03
2018-12-01T21:46:31.240Z,92.13
2018-12-01T21:48:59.042Z,88.93
2018-12-01T21:51:26.816Z,81.60
2018-12-01T21:53:54.583Z,81.80
2018-12-01T21:56:22.328Z,81.40
2018-12-01T21:58:50.356Z,74.10
2018-12-01T22:01:18.107Z,68.60
2018-12-01T22:03:45.882Z,66.37
2018-12-01T22:06:13.636Z,68.57
2018-12-01T22:08:41.431Z,68.43
2018-12-01T22:11:09.788Z,64.30
2018-12-01T22:13:38.524Z,63.83
2018-12-01T22:16:07.261Z,66.97
2018-12-01T22:18:35.014Z,62.93
2018-12-01T22:21:02.755Z,61.90
2018-12-01T22:23:30.504Z,61.17
2018-12-01T22:25:58.268Z,58.73
2018-12-01T22:28:26.021Z,58.73
2018-12-01T22:30:53.817Z,56.33
2018-12-01T22:33:23.930Z,55.93
2018-12-01T22:35:51.757Z,56.13
2018-12-01T22:38:19.492Z,53.20
2018-12-01T22:40:47.426Z,55.70
2018-12-01T22:43:15.202Z,54.80
2018-12-01T22:45:42.928Z,54.03
2018-12-01T22:48:13.193Z,55.97
2018-12-01T22:50:42.434Z,54.90
2018-12-01T22:53:10.205Z,52.80
2018-12-01T22:55:39.458Z,52.90
2018-12-01T22:58:08.566Z,57.17
2018-12-01T23:00:50.338Z,57.20
2018-12-01T23:03:21.075Z,57.80
2018-12-01T23:05:48.827Z,53.90
2018-12-01T23:08:22.448Z,50.60
2018-12-01T23:10:50.573Z,54.57
2018-12-01T23:13:18.397Z,52.13
2018-12-01T23:15:46.168Z,52.93
2018-12-01T23:18:15.457Z,50.53
2018-12-01T23:20:44.512Z,48.90
2018-12-01T23:23:12.293Z,45.60
2018-12-01T23:25:40.426Z,45.83
2018-12-01T23:28:08.344Z,41.57
2018-12-01T23:30:36.598Z,43.77
2018-12-01T23:33:08.707Z,38.90
2018-12-01T23:35:36.915Z,38.30
2018-12-01T23:38:04.992Z,38.27
2018-12-01T23:40:32.749Z,39.20
2018-12-01T23:43:00.503Z,36.73
2018-12-01T23:45:28.314Z,38.57
2018-12-01T23:47:56.052Z,37.37
2018-12-01T23:50:24.946Z,39.93
2018-12-01T23:52:54.684Z,39.87
2018-12-01T23:55:22.908Z,42.30
2018-12-01T23:57:50.641Z,40.20
